createdAt,value
2022-09-30T00:00:17.429Z,96320.53
2022-09-30T00:02:44.668Z,96321.16
2022-09-30T00:05:11.170Z,96321.16
2022-09-30T00:07:37.565Z,96314.00
2022-09-30T00:10:04.407Z,96309.81
2022-09-30T00:12:30.982Z,96315.31
2022-09-30T00:14:57.436Z,96330.28
2022-09-30T00:17:23.886Z,96327.47
2022-09-30T00:19:50.345Z,96331.13
2022-09-30T00:22:16.748Z,96329.78
2022-09-30T00:24:43.149Z,96331.94
2022-09-30T00:27:09.558Z,96322.66
2022-09-30T00:29:35.975Z,96332.44
2022-09-30T00:32:02.442Z,96337.72
2022-09-30T00:34:28.910Z,96339.34
2022-09-30T00:36:58.387Z,96331.84
2022-09-30T00:39:25.743Z,96330.50
2022-09-30T00:41:53.756Z,96329.69
2022-09-30T00:44:58.898Z,96337.34
2022-09-30T00:47:25.312Z,96348.78
2022-09-30T00:49:51.769Z,96345.00
2022-09-30T00:52:18.417Z,96337.94
2022-09-30T00:54:44.903Z,96345.59
2022-09-30T00:57:11.301Z,96344.47
2022-09-30T00:59:38.999Z,96354.38
2022-09-30T01:02:05.890Z,96350.59
2022-09-30T01:04:32.385Z,96350.91
2022-09-30T01:06:59.605Z,96345.97
2022-09-30T01:09:26.129Z,96351.47
2022-09-30T01:11:52.550Z,96350.16
2022-09-30T01:14:21.653Z,96349.63
2022-09-30T01:16:48.062Z,96350.16
2022-09-30T01:19:17.560Z,96343.97
2022-09-30T01:22:02.982Z,96341.06
2022-09-30T01:24:44.652Z,96347.03
2022-09-30T01:27:29.941Z,96338.31
2022-09-30T01:29:56.372Z,96343.97
2022-09-30T01:32:45.165Z,96341.69
2022-09-30T01:35:15.516Z,96340.66
2022-09-30T01:37:41.863Z,96344.50
2022-09-30T01:40:22.669Z,96346.28
2022-09-30T01:42:49.979Z,96352.97
2022-09-30T01:45:17.498Z,96348.06
2022-09-30T01:48:13.458Z,96349.84
2022-09-30T01:50:44.734Z,96351.78
2022-09-30T01:53:15.230Z,96354.16
2022-09-30T01:55:44.646Z,96360.78
2022-09-30T01:58:14.048Z,96362.81
2022-09-30T02:00:41.122Z,96358.59
2022-09-30T02:03:10.569Z,96363.41
2022-09-30T02:05:38.291Z,96356.16
2022-09-30T02:08:06.201Z,96356.66
2022-09-30T02:10:32.697Z,96361.59
2022-09-30T02:13:05.220Z,96366.34
2022-09-30T02:15:38.464Z,96364.03
2022-09-30T02:18:10.811Z,96359.00
2022-09-30T02:20:38.375Z,96361.59
2022-09-30T02:23:04.915Z,96369.81
2022-09-30T02:25:34.055Z,96374.78
2022-09-30T02:28:01.779Z,96370.19
2022-09-30T02:30:28.570Z,96367.44
2022-09-30T02:33:01.486Z,96363.59
2022-09-30T02:35:32.428Z,96364.06
2022-09-30T02:37:59.976Z,96359.69
2022-09-30T02:40:26.388Z,96360.50
2022-09-30T02:42:53.058Z,96364.06
2022-09-30T02:45:20.793Z,96365.97
2022-09-30T02:47:50.182Z,96366.13
2022-09-30T02:50:29.091Z,96362.28
2022-09-30T02:53:27.973Z,96360.63
2022-09-30T02:56:20.804Z,96358.72
2022-09-30T02:58:47.211Z,96354.63
2022-09-30T03:01:14.417Z,96358.97
2022-09-30T03:03:40.920Z,96357.78
2022-09-30T03:06:07.403Z,96349.88
2022-09-30T03:08:33.809Z,96358.63
2022-09-30T03:11:00.244Z,96364.59
2022-09-30T03:13:49.985Z,96360.38
2022-09-30T03:16:19.667Z,96366.38
2022-09-30T03:18:52.635Z,96372.97
2022-09-30T03:21:19.039Z,96371.22
2022-09-30T03:23:57.655Z,96374.41
2022-09-30T03:26:29.133Z,96375.34
2022-09-30T03:29:24.898Z,96376.47
2022-09-30T03:31:57.889Z,96377.38
2022-09-30T03:34:33.270Z,96384.06
2022-09-30T03:37:06.716Z,96390.34
2022-09-30T03:39:42.223Z,96393.38
2022-09-30T03:42:29.234Z,96385.47
2022-09-30T03:45:04.954Z,96396.28
2022-09-30T03:47:32.517Z,96399.56
2022-09-30T03:50:00.399Z,96398.72
2022-09-30T03:52:26.831Z,96393.53
2022-09-30T03:54:54.717Z,96402.28
2022-09-30T03:57:21.372Z,96405.41
2022-09-30T03:59:47.793Z,96403.50
2022-09-30T04:02:14.259Z,96397.09
2022-09-30T04:04:43.605Z,96404.59
2022-09-30T04:07:10.439Z,96405.25
2022-09-30T04:09:37.303Z,96410.06
2022-09-30T04:12:03.809Z,96414.97
2022-09-30T04:14:30.228Z,96427.81
2022-09-30T04:16:56.806Z,96434.13
2022-09-30T04:19:23.312Z,96434.41
2022-09-30T04:21:53.250Z,96434.69
2022-09-30T04:24:20.279Z,96437.72
2022-09-30T04:26:46.712Z,96435.78
2022-09-30T04:29:13.144Z,96444.00
2022-09-30T04:31:39.607Z,96446.88
2022-09-30T04:34:06.277Z,96440.03
2022-09-30T04:36:32.684Z,96447.84
2022-09-30T04:38:59.135Z,96447.16
2022-09-30T04:41:25.916Z,96446.47
2022-09-30T04:43:52.354Z,96456.03
2022-09-30T04:46:19.906Z,96462.84
2022-09-30T04:48:46.884Z,96466.13
2022-09-30T04:51:13.729Z,96465.31
2022-09-30T04:53:40.216Z,96470.22
2022-09-30T04:56:06.882Z,96469.38
2022-09-30T04:58:36.794Z,96478.13
2022-09-30T05:01:04.415Z,96470.34
2022-09-30T05:03:30.851Z,96471.00
2022-09-30T05:05:57.517Z,96470.34
2022-09-30T05:08:24.038Z,96469.94
2022-09-30T05:10:57.804Z,96472.66
2022-09-30T05:13:30.886Z,96479.09
2022-09-30T05:15:57.380Z,96477.47
2022-09-30T05:18:26.388Z,96488.78
2022-09-30T05:20:53.371Z,96486.63
2022-09-30T05:23:20.081Z,96483.19
2022-09-30T05:25:46.743Z,96491.25
2022-09-30T05:28:13.445Z,96487.72
2022-09-30T05:30:41.943Z,96492.91
2022-09-30T05:33:08.440Z,96490.44
2022-09-30T05:35:34.942Z,96494.53
2022-09-30T05:38:03.397Z,96490.16
2022-09-30T05:40:29.928Z,96485.78
2022-09-30T05:42:56.928Z,96490.72
2022-09-30T05:45:23.487Z,96494.25
2022-09-30T05:47:53.485Z,96493.97
2022-09-30T05:50:20.649Z,96491.91
2022-09-30T05:52:47.143Z,96487.97
2022-09-30T05:55:13.673Z,96493.97
2022-09-30T05:57:40.075Z,96501.06
2022-09-30T06:00:06.803Z,96496.97
2022-09-30T06:02:33.819Z,96503.66
2022-09-30T06:05:00.287Z,96504.47
2022-09-30T06:07:26.687Z,96506.78
2022-09-30T06:09:53.063Z,96511.56
2022-09-30T06:12:19.472Z,96509.38
2022-09-30T06:14:45.873Z,96524.00
2022-09-30T06:17:12.358Z,96526.03
2022-09-30T06:19:38.857Z,96530.41
2022-09-30T06:22:05.302Z,96530.22
2022-09-30T06:24:31.690Z,96536.22
2022-09-30T06:26:58.150Z,96541.66
2022-09-30T06:29:24.673Z,96545.97
2022-09-30T06:31:51.148Z,96555.47
2022-09-30T06:34:17.564Z,96548.53
2022-09-30T06:36:43.986Z,96549.41
2022-09-30T06:39:13.693Z,96555.06
2022-09-30T06:41:44.161Z,96564.66
2022-09-30T06:44:10.737Z,96562.59
2022-09-30T06:46:47.094Z,96560.06
2022-09-30T06:49:17.450Z,96564.19
2022-09-30T06:51:43.897Z,96566.09
2022-09-30T06:54:10.567Z,96566.69
2022-09-30T06:56:37.151Z,96567.13
2022-09-30T06:59:03.597Z,96573.00
2022-09-30T07:01:30.145Z,96577.63
2022-09-30T07:03:58.174Z,96572.94
2022-09-30T07:06:26.030Z,96566.78
2022-09-30T07:08:53.613Z,96569.25
2022-09-30T07:11:20.124Z,96567.94
2022-09-30T07:13:46.954Z,96571.41
2022-09-30T07:16:14.174Z,96572.88
2022-09-30T07:18:42.785Z,96567.31
2022-09-30T07:21:09.836Z,96566.97
2022-09-30T07:23:36.230Z,96579.56
2022-09-30T07:26:04.634Z,96584.59
2022-09-30T07:28:33.930Z,96590.44
2022-09-30T07:31:30.790Z,96587.63
2022-09-30T07:33:51.326Z,96584.47
2022-09-30T07:36:18.828Z,96584.81
2022-09-30T07:38:45.697Z,96589.03
2022-09-30T07:41:13.158Z,96587.28
2022-09-30T07:43:40.144Z,96589.81
2022-09-30T07:46:10.287Z,96598.28
2022-09-30T07:48:51.881Z,96597.47
2022-09-30T07:51:19.457Z,96598.50
2022-09-30T07:53:47.057Z,96593.28
2022-09-30T07:56:14.478Z,96598.75
2022-09-30T07:58:41.067Z,96598.16
2022-09-30T08:01:07.527Z,96603.44
2022-09-30T08:03:35.054Z,96600.63
2022-09-30T08:06:12.830Z,96598.63
2022-09-30T08:08:39.446Z,96604.00
2022-09-30T08:11:06.208Z,96605.25
2022-09-30T08:13:32.731Z,96603.91
2022-09-30T08:15:59.231Z,96601.53
2022-09-30T08:18:25.744Z,96612.22
2022-09-30T08:20:52.155Z,96609.66
2022-09-30T08:23:18.636Z,96606.44
2022-09-30T08:25:45.088Z,96600.56
2022-09-30T08:28:11.771Z,96603.72
2022-09-30T08:30:38.253Z,96604.19
2022-09-30T08:33:04.825Z,96613.03
2022-09-30T08:35:31.378Z,96616.06
2022-09-30T08:37:57.911Z,96618.00
2022-09-30T08:40:31.739Z,96614.97
2022-09-30T08:43:24.412Z,96612.06
2022-09-30T08:45:53.880Z,96612.47
2022-09-30T08:48:26.471Z,96617.75
2022-09-30T08:50:56.031Z,96612.38
2022-09-30T08:53:26.759Z,96615.28
2022-09-30T08:55:53.233Z,96609.50
2022-09-30T08:58:23.886Z,96613.59
2022-09-30T09:00:50.507Z,96607.09
2022-09-30T09:03:20.462Z,96616.19
2022-09-30T09:05:56.674Z,96606.72
2022-09-30T09:08:29.944Z,96615.09
2022-09-30T09:11:02.848Z,96610.25
2022-09-30T09:13:47.976Z,96606.72
2022-09-30T09:16:26.550Z,96612.31
2022-09-30T09:18:56.097Z,96598.84
2022-09-30T09:21:32.193Z,96611.38
2022-09-30T09:24:00.374Z,96601.13
2022-09-30T09:26:26.944Z,96608.66
2022-09-30T09:29:24.725Z,96615.47
2022-09-30T09:31:51.400Z,96611.25
2022-09-30T09:34:17.850Z,96604.00
2022-09-30T09:36:56.591Z,96605.25
2022-09-30T09:39:26.047Z,96607.53
2022-09-30T09:42:17.124Z,96604.94
2022-09-30T09:45:02.163Z,96599.47
2022-09-30T09:47:28.583Z,96605.22
2022-09-30T09:50:03.520Z,96597.19
2022-09-30T09:52:48.784Z,96597.31
2022-09-30T09:55:15.808Z,96603.63
2022-09-30T09:57:42.286Z,96607.75
2022-09-30T10:00:39.698Z,96602.09
2022-09-30T10:03:12.048Z,96591.78
2022-09-30T10:05:41.585Z,96597.44
2022-09-30T10:08:09.850Z,96587.91
2022-09-30T10:11:03.469Z,96589.38
2022-09-30T10:13:39.134Z,96587.06
2022-09-30T10:16:05.738Z,96591.38
2022-09-30T10:18:33.748Z,96590.38
2022-09-30T10:21:05.720Z,96600.22
2022-09-30T10:23:36.806Z,96597.97
2022-09-30T10:26:03.928Z,96601.16
2022-09-30T10:28:31.887Z,96592.28
2022-09-30T10:31:02.188Z,96592.88
2022-09-30T10:33:30.441Z,96593.41
2022-09-30T10:35:56.821Z,96587.75
2022-09-30T10:38:29.121Z,96598.00
2022-09-30T10:40:55.720Z,96598.78
2022-09-30T10:43:27.089Z,96598.41
2022-09-30T10:46:20.845Z,96606.06
2022-09-30T10:48:40.019Z,96608.94
2022-09-30T10:51:06.620Z,96603.81
2022-09-30T10:53:33.734Z,96595.00
2022-09-30T10:56:01.487Z,96605.47
2022-09-30T10:58:27.919Z,96595.09
2022-09-30T11:00:57.025Z,96592.91
2022-09-30T11:03:35.181Z,96599.72
2022-09-30T11:06:01.785Z,96589.50
2022-09-30T11:09:00.668Z,96587.88
2022-09-30T11:11:47.342Z,96587.19
2022-09-30T11:14:32.669Z,96584.69
2022-09-30T11:17:21.902Z,96586.94
2022-09-30T11:19:52.197Z,96578.53
2022-09-30T11:22:18.586Z,96578.97
2022-09-30T11:24:45.686Z,96580.69
2022-09-30T11:27:15.144Z,96582.56
2022-09-30T11:29:47.706Z,96582.69
2022-09-30T11:32:23.170Z,96584.81
2022-09-30T11:35:07.867Z,96590.72
2022-09-30T11:37:54.536Z,96594.91
2022-09-30T11:40:30.999Z,96583.66
2022-09-30T11:43:16.141Z,96580.56
2022-09-30T11:45:54.153Z,96589.13
2022-09-30T11:48:29.279Z,96584.78
2022-09-30T11:51:17.081Z,96584.41
2022-09-30T11:53:56.576Z,96589.13
2022-09-30T11:56:29.439Z,96589.56
2022-09-30T11:58:58.086Z,96592.31
2022-09-30T12:01:26.021Z,96598.09
2022-09-30T12:03:55.921Z,96598.00
2022-09-30T12:06:28.615Z,96586.09
2022-09-30T12:08:59.921Z,96599.63
2022-09-30T12:11:43.613Z,96598.44
2022-09-30T12:14:18.592Z,96594.19
2022-09-30T12:16:45.429Z,96592.22
2022-09-30T12:19:14.192Z,96592.97
2022-09-30T12:21:42.685Z,96600.16
2022-09-30T12:24:23.498Z,96582.69
2022-09-30T12:26:49.939Z,96578.25
2022-09-30T12:29:40.647Z,96569.13
2022-09-30T12:32:30.976Z,96582.75
2022-09-30T12:35:07.430Z,96578.16
2022-09-30T12:37:36.943Z,96578.66
2022-09-30T12:40:06.578Z,96573.06
2022-09-30T12:42:45.806Z,96568.88
2022-09-30T12:45:21.426Z,96575.25
2022-09-30T12:47:51.775Z,96569.22
2022-09-30T12:50:19.182Z,96565.09
2022-09-30T12:52:45.639Z,96560.63
2022-09-30T12:55:22.982Z,96562.03
2022-09-30T12:57:49.371Z,96570.00
2022-09-30T13:00:17.072Z,96545.88
2022-09-30T13:02:44.358Z,96552.19
2022-09-30T13:05:29.136Z,96553.75
2022-09-30T13:08:04.699Z,96554.22
2022-09-30T13:10:34.940Z,96554.47
2022-09-30T13:13:10.438Z,96557.59
2022-09-30T13:15:40.005Z,96566.63
2022-09-30T13:18:32.811Z,96560.13
2022-09-30T13:21:05.378Z,96554.63
2022-09-30T13:23:47.747Z,96546.25
2022-09-30T13:26:29.528Z,96545.56
2022-09-30T13:29:02.625Z,96560.47
2022-09-30T13:31:32.681Z,96552.25
2022-09-30T13:34:02.284Z,96550.66
2022-09-30T13:36:51.633Z,96558.31
2022-09-30T13:39:31.755Z,96556.19
2022-09-30T13:42:07.382Z,96546.16
2022-09-30T13:44:44.579Z,96561.78
2022-09-30T13:47:22.311Z,96546.81
2022-09-30T13:49:52.998Z,96545.69
2022-09-30T13:52:24.598Z,96535.53
2022-09-30T13:54:51.207Z,96547.53
2022-09-30T13:57:19.424Z,96531.84
2022-09-30T13:59:45.829Z,96543.53
2022-09-30T14:02:12.212Z,96535.88
2022-09-30T14:04:41.616Z,96532.41
2022-09-30T14:07:12.489Z,96528.41
2022-09-30T14:09:47.203Z,96528.78
2022-09-30T14:12:14.461Z,96519.50
2022-09-30T14:15:02.345Z,96528.47
2022-09-30T14:17:38.115Z,96518.28
2022-09-30T14:20:24.155Z,96522.25
2022-09-30T14:22:50.563Z,96537.13
2022-09-30T14:25:17.638Z,96537.69
2022-09-30T14:27:56.295Z,96541.88
2022-09-30T14:30:23.800Z,96537.00
2022-09-30T14:32:52.788Z,96530.53
2022-09-30T14:35:20.582Z,96523.97
2022-09-30T14:38:05.856Z,96521.53
2022-09-30T14:40:33.145Z,96528.56
2022-09-30T14:43:04.950Z,96520.28
2022-09-30T14:45:33.048Z,96520.75
2022-09-30T14:48:07.035Z,96517.94
2022-09-30T14:50:37.855Z,96507.03
2022-09-30T14:53:04.326Z,96514.47
2022-09-30T14:55:31.990Z,96509.50
2022-09-30T14:58:18.209Z,96505.19
2022-09-30T15:00:45.420Z,96514.28
2022-09-30T15:03:12.219Z,96511.00
2022-09-30T15:05:39.163Z,96504.09
2022-09-30T15:08:25.821Z,96496.94
2022-09-30T15:10:55.933Z,96494.00
2022-09-30T15:13:23.083Z,96499.69
2022-09-30T15:15:49.512Z,96498.06
2022-09-30T15:18:25.102Z,96503.22
2022-09-30T15:20:55.319Z,96497.25
2022-09-30T15:23:24.760Z,96496.94
2022-09-30T15:25:52.175Z,96508.13
2022-09-30T15:28:18.664Z,96503.28
2022-09-30T15:30:45.283Z,96503.09
2022-09-30T15:33:12.473Z,96502.81
2022-09-30T15:35:38.969Z,96498.22
2022-09-30T15:38:08.821Z,96488.44
2022-09-30T15:40:48.522Z,96489.41
2022-09-30T15:43:16.346Z,96492.88
2022-09-30T15:45:43.999Z,96494.41
2022-09-30T15:48:13.563Z,96495.56
2022-09-30T15:50:41.266Z,96507.28
2022-09-30T15:53:22.654Z,96508.19
2022-09-30T15:56:15.883Z,96494.44
2022-09-30T15:58:46.570Z,96493.06
2022-09-30T16:01:18.433Z,96505.59
2022-09-30T16:03:47.944Z,96510.59
2022-09-30T16:06:14.446Z,96504.56
2022-09-30T16:08:44.726Z,96505.44
2022-09-30T16:11:19.111Z,96514.09
2022-09-30T16:13:46.199Z,96514.53
2022-09-30T16:16:18.641Z,96512.13
2022-09-30T16:18:45.126Z,96502.78
2022-09-30T16:21:27.518Z,96511.31
2022-09-30T16:23:54.645Z,96509.47
2022-09-30T16:26:24.398Z,96512.59
2022-09-30T16:28:51.256Z,96516.31
2022-09-30T16:31:17.915Z,96515.50
2022-09-30T16:33:44.590Z,96522.03
2022-09-30T16:36:11.789Z,96515.97
2022-09-30T16:38:38.342Z,96526.75
2022-09-30T16:41:04.960Z,96517.66
2022-09-30T16:43:31.632Z,96522.72
2022-09-30T16:45:58.311Z,96528.66
2022-09-30T16:48:26.142Z,96529.09
2022-09-30T16:50:55.627Z,96522.59
2022-09-30T16:53:22.100Z,96525.47
2022-09-30T16:55:48.532Z,96526.06
2022-09-30T16:58:15.199Z,96529.91
2022-09-30T17:00:44.450Z,96527.50
2022-09-30T17:03:15.120Z,96528.31
2022-09-30T17:05:42.751Z,96530.72
2022-09-30T17:08:09.718Z,96536.00
2022-09-30T17:10:36.666Z,96534.16
2022-09-30T17:13:03.642Z,96531.94
2022-09-30T17:15:30.937Z,96525.44
2022-09-30T17:17:58.004Z,96528.28
2022-09-30T17:20:24.727Z,96526.44
2022-09-30T17:22:51.162Z,96531.94
2022-09-30T17:25:17.594Z,96536.22
2022-09-30T17:27:46.516Z,96539.19
2022-09-30T17:30:13.008Z,96548.91
2022-09-30T17:32:39.457Z,96546.28
2022-09-30T17:35:08.842Z,96541.44
2022-09-30T17:37:37.488Z,96543.66
2022-09-30T17:40:26.086Z,96541.63
2022-09-30T17:43:07.807Z,96533.91
2022-09-30T17:45:34.551Z,96536.34
2022-09-30T17:48:01.111Z,96534.28
2022-09-30T17:50:27.973Z,96532.66
2022-09-30T17:52:54.404Z,96526.97
2022-09-30T17:55:20.776Z,96531.66
2022-09-30T17:57:47.175Z,96523.56
2022-09-30T18:00:13.595Z,96523.59
2022-09-30T18:02:41.955Z,96528.63
2022-09-30T18:05:08.518Z,96518.09
2022-09-30T18:07:34.914Z,96523.75
2022-09-30T18:10:02.435Z,96518.91
2022-09-30T18:12:28.876Z,96516.66
2022-09-30T18:14:56.125Z,96510.94
2022-09-30T18:17:23.438Z,96515.00
2022-09-30T18:19:49.830Z,96515.16
2022-09-30T18:22:16.263Z,96513.75
2022-09-30T18:25:01.444Z,96516.34
2022-09-30T18:27:33.806Z,96516.56
2022-09-30T18:30:01.336Z,96518.75
2022-09-30T18:32:28.636Z,96530.50
2022-09-30T18:34:56.340Z,96524.22
2022-09-30T18:37:23.389Z,96518.50
2022-09-30T18:39:49.882Z,96523.94
2022-09-30T18:42:18.845Z,96519.50
2022-09-30T18:44:45.303Z,96523.38
2022-09-30T18:47:11.732Z,96518.75
2022-09-30T18:49:38.148Z,96517.13
2022-09-30T18:52:04.697Z,96521.13
2022-09-30T18:54:31.207Z,96515.63
2022-09-30T18:56:57.623Z,96518.19
2022-09-30T18:59:24.287Z,96522.63
2022-09-30T19:01:51.024Z,96532.50
2022-09-30T19:04:17.528Z,96528.34
2022-09-30T19:06:44.506Z,96533.34
2022-09-30T19:09:11.021Z,96521.81
2022-09-30T19:11:37.460Z,96526.50
2022-09-30T19:14:05.690Z,96525.72
2022-09-30T19:16:36.663Z,96528.19
2022-09-30T19:19:05.066Z,96531.69
2022-09-30T19:21:35.319Z,96537.56
2022-09-30T19:24:03.231Z,96534.41
2022-09-30T19:26:30.309Z,96534.78
2022-09-30T19:28:57.115Z,96527.09
2022-09-30T19:31:24.029Z,96527.91
2022-09-30T19:33:56.490Z,96534.81
2022-09-30T19:36:24.017Z,96531.56
2022-09-30T19:38:51.920Z,96528.25
2022-09-30T19:41:20.256Z,96530.84
2022-09-30T19:43:50.213Z,96531.47
2022-09-30T19:46:16.765Z,96524.16
2022-09-30T19:48:43.246Z,96527.53
2022-09-30T19:51:13.693Z,96517.97
2022-09-30T19:53:42.252Z,96514.13
2022-09-30T19:56:16.777Z,96522.22
2022-09-30T19:58:44.543Z,96508.00
2022-09-30T20:01:11.988Z,96513.84
2022-09-30T20:03:38.767Z,96513.03
2022-09-30T20:06:06.226Z,96514.09
2022-09-30T20:08:33.396Z,96515.75
2022-09-30T20:11:07.353Z,96508.44
2022-09-30T20:13:33.775Z,96508.97
2022-09-30T20:16:01.185Z,96510.78
2022-09-30T20:18:28.839Z,96513.81
2022-09-30T20:20:55.326Z,96509.38
2022-09-30T20:23:22.395Z,96509.22
2022-09-30T20:25:49.159Z,96508.97
2022-09-30T20:28:15.765Z,96507.13
2022-09-30T20:30:48.239Z,96511.94
2022-09-30T20:33:15.537Z,96516.78
2022-09-30T20:35:42.008Z,96507.88
2022-09-30T20:38:12.307Z,96516.53
2022-09-30T20:40:40.107Z,96518.88
2022-09-30T20:43:07.403Z,96520.63
2022-09-30T20:45:34.263Z,96512.72
2022-09-30T20:48:01.013Z,96504.38
2022-09-30T20:50:36.514Z,96506.25
2022-09-30T20:53:10.304Z,96509.84
2022-09-30T20:55:38.026Z,96503.94
2022-09-30T20:58:04.989Z,96499.44
2022-09-30T21:00:32.244Z,96495.63
2022-09-30T21:02:58.744Z,96487.06
2022-09-30T21:05:25.359Z,96488.31
2022-09-30T21:07:51.826Z,96479.91
2022-09-30T21:10:18.232Z,96474.44
2022-09-30T21:12:45.035Z,96472.81
2022-09-30T21:15:12.149Z,96473.00
2022-09-30T21:17:40.336Z,96460.66
2022-09-30T21:20:07.085Z,96459.44
2022-09-30T21:22:33.490Z,96458.44
2022-09-30T21:24:59.907Z,96458.97
2022-09-30T21:27:26.281Z,96456.31
2022-09-30T21:29:53.111Z,96447.59
2022-09-30T21:32:20.525Z,96444.59
2022-09-30T21:34:46.949Z,96444.47
2022-09-30T21:37:13.369Z,96442.00
2022-09-30T21:39:39.800Z,96441.34
2022-09-30T21:42:06.176Z,96432.59
2022-09-30T21:44:32.645Z,96426.66
2022-09-30T21:46:59.076Z,96426.53
2022-09-30T21:49:25.556Z,96430.78
2022-09-30T21:51:53.370Z,96429.09
2022-09-30T21:54:19.848Z,96424.28
2022-09-30T21:56:46.379Z,96426.41
2022-09-30T21:59:12.984Z,96425.44
2022-09-30T22:01:39.556Z,96423.25
2022-09-30T22:04:07.087Z,96430.50
2022-09-30T22:06:33.552Z,96436.78
2022-09-30T22:09:03.031Z,96435.94
2022-09-30T22:11:30.197Z,96432.84
2022-09-30T22:13:57.557Z,96421.59
2022-09-30T22:16:27.038Z,96424.41
2022-09-30T22:18:54.156Z,96425.63
2022-09-30T22:21:20.569Z,96428.13
2022-09-30T22:23:47.662Z,96415.63
2022-09-30T22:26:18.518Z,96423.16
2022-09-30T22:28:45.618Z,96424.75
2022-09-30T22:31:19.432Z,96434.28
2022-09-30T22:34:05.410Z,96429.19
2022-09-30T22:36:50.526Z,96432.00
2022-09-30T22:39:18.089Z,96422.13
2022-09-30T22:41:45.048Z,96418.88
2022-09-30T22:44:11.600Z,96419.66
2022-09-30T22:46:38.371Z,96422.06
2022-09-30T22:49:05.723Z,96415.84
2022-09-30T22:51:35.416Z,96411.59
2022-09-30T22:54:03.402Z,96404.47
2022-09-30T22:56:30.418Z,96403.84
2022-09-30T22:58:56.894Z,96399.38
2022-09-30T23:01:23.298Z,96398.41
2022-09-30T23:03:55.760Z,96387.44
2022-09-30T23:06:22.931Z,96383.38
2022-09-30T23:08:49.486Z,96386.22
2022-09-30T23:11:19.432Z,96376.13
2022-09-30T23:13:46.390Z,96385.03
2022-09-30T23:16:13.195Z,96380.78
2022-09-30T23:18:42.607Z,96378.16
2022-09-30T23:21:13.511Z,96366.19
2022-09-30T23:23:40.290Z,96371.06
2022-09-30T23:26:25.915Z,96369.00
2022-09-30T23:28:52.812Z,96369.00
2022-09-30T23:31:19.330Z,96370.41
2022-09-30T23:33:47.120Z,96367.59
2022-09-30T23:36:15.087Z,96362.91
2022-09-30T23:38:41.636Z,96359.25
2022-09-30T23:41:08.221Z,96363.13
2022-09-30T23:43:35.086Z,96352.59
2022-09-30T23:46:01.718Z,96357.09
2022-09-30T23:48:28.344Z,96346.50
2022-09-30T23:50:54.866Z,96345.69
2022-09-30T23:53:22.035Z,96347.13
2022-09-30T23:55:59.166Z,96343.47
2022-09-30T23:58:26.165Z,96343.47
